Time;durP1;ratioP1;P1;durP2;ratioP2;P2;SDS_P1;SDS_P2;PMS_P1;PMS_P2;Temp;Humidity;BMP_temperature;BMP_pressure;BME280_temperature;BME280_humidity;BME280_pressure;Samples;Min_cycle;Max_cycle;Signal;HPM_P1;HPM_P2
2023/12/20 00:00:06;;;;;;;4.03;1.40;;;7.50;99.90;;;;;;4874766;29;20092;-78
2023/12/20 00:02:32;;;;;;;2.90;1.10;;;7.50;99.90;;;;;;4906505;29;20233;-75
2023/12/20 00:04:58;;;;;;;2.30;0.80;;;7.50;99.90;;;;;;4907317;29;20424;-76
2023/12/20 00:07:23;;;;;;;2.08;0.75;;;7.50;99.90;;;;;;4890480;29;20092;-77
2023/12/20 00:09:52;;;;;;;1.90;0.90;;;7.50;99.90;;;;;;4889958;29;20052;-77
2023/12/20 00:12:18;;;;;;;1.80;0.80;;;7.50;99.90;;;;;;4888445;29;20064;-77
2023/12/20 00:14:44;;;;;;;2.13;1.05;;;7.50;99.90;;;;;;4887776;29;20037;-77
2023/12/20 00:17:09;;;;;;;1.45;0.70;;;7.50;99.90;;;;;;4856386;29;20068;-76
2023/12/20 00:19:35;;;;;;;1.80;0.85;;;7.50;99.90;;;;;;4871673;29;20072;-77
2023/12/20 00:22:01;;;;;;;1.63;0.80;;;7.50;99.90;;;;;;4888571;29;20033;-78
2023/12/20 00:24:27;;;;;;;1.23;0.70;;;7.50;99.90;;;;;;4872307;29;20033;-77
2023/12/20 00:26:56;;;;;;;2.47;0.80;;;7.50;99.90;;;;;;4874822;29;20244;-77
2023/12/20 00:29:27;;;;;;;1.60;0.65;;;7.50;99.90;;;;;;4888862;29;20037;-75
2023/12/20 00:31:56;;;;;;;2.08;0.80;;;7.50;99.90;;;;;;4858339;29;20055;-76
2023/12/20 00:34:22;;;;;;;1.65;0.70;;;7.50;99.90;;;;;;4891909;29;20041;-78
2023/12/20 00:36:47;;;;;;;1.83;0.60;;;7.50;99.90;;;;;;4874835;29;20041;-75
2023/12/20 00:39:13;;;;;;;1.45;0.75;;;7.50;99.90;;;;;;4875530;29;20203;-77
2023/12/20 00:41:42;;;;;;;2.30;0.77;;;7.50;99.90;;;;;;4874764;29;20052;-75
2023/12/20 00:44:08;;;;;;;1.60;0.60;;;7.50;99.90;;;;;;4863221;29;20029;-76
2023/12/20 00:46:34;;;;;;;2.67;0.70;;;7.50;99.90;;;;;;4891211;29;20085;-77
2023/12/20 00:48:59;;;;;;;1.52;0.65;;;7.50;99.90;;;;;;4875354;29;20206;-77
2023/12/20 00:51:25;;;;;;;2.00;0.80;;;7.40;99.90;;;;;;4893747;29;20021;-75
2023/12/20 00:53:54;;;;;;;1.70;0.88;;;7.40;99.90;;;;;;4877586;29;20021;-76
2023/12/20 00:56:20;;;;;;;1.90;0.70;;;7.30;99.90;;;;;;4910471;29;20323;-76
2023/12/20 00:58:52;;;;;;;1.90;0.70;;;7.40;99.90;;;;;;4877563;29;20218;-76
2023/12/20 01:01:21;;;;;;;2.10;0.80;;;7.20;99.90;;;;;;4877751;29;20017;-76
2023/12/20 01:03:48;;;;;;;2.53;0.90;;;7.10;99.90;;;;;;4873896;29;20128;-76
2023/12/20 01:06:14;;;;;;;2.03;0.82;;;7.00;99.90;;;;;;4891332;29;20041;-76
2023/12/20 01:08:39;;;;;;;2.78;1.00;;;7.00;99.90;;;;;;4874275;29;20122;-75
2023/12/20 01:11:05;;;;;;;2.78;1.05;;;6.90;99.90;;;;;;4874931;29;20025;-77
2023/12/20 01:13:31;;;;;;;1.75;0.70;;;7.00;99.90;;;;;;4874180;29;20264;-75
2023/12/20 01:16:03;;;;;;;2.28;0.68;;;7.00;99.90;;;;;;4874442;29;20049;-75
2023/12/20 01:18:35;;;;;;;2.70;0.93;;;6.90;99.90;;;;;;4890186;29;20267;-74
2023/12/20 01:21:04;;;;;;;3.38;1.00;;;6.90;99.90;;;;;;4874494;29;20076;-74
2023/12/20 01:23:30;;;;;;;2.22;1.00;;;6.80;99.90;;;;;;4890365;29;20145;-75
2023/12/20 01:25:55;;;;;;;2.00;0.90;;;6.70;99.90;;;;;;4890927;29;20219;-76
2023/12/20 01:28:21;;;;;;;1.73;0.70;;;6.70;99.90;;;;;;4891182;29;20036;-76
2023/12/20 01:30:50;;;;;;;1.98;0.73;;;6.60;99.90;;;;;;4873751;29;20108;-77
2023/12/20 01:33:22;;;;;;;2.97;0.68;;;6.60;99.90;;;;;;4890022;29;20028;-75
2023/12/20 01:35:47;;;;;;;3.47;0.65;;;6.60;99.90;;;;;;4884129;29;20480;-75
2023/12/20 01:38:13;;;;;;;1.40;0.80;;;6.60;99.90;;;;;;4890708;29;20025;-75
2023/12/20 01:40:39;;;;;;;2.08;0.75;;;6.50;99.90;;;;;;4873960;29;20339;-74
2023/12/20 01:43:09;;;;;;;1.80;0.85;;;6.60;99.90;;;;;;4873397;29;20040;-76
2023/12/20 01:45:35;;;;;;;1.40;0.68;;;6.50;99.90;;;;;;4889954;29;20215;-75
2023/12/20 01:48:03;;;;;;;2.00;0.80;;;6.50;99.90;;;;;;4890870;29;20025;-75
2023/12/20 01:50:31;;;;;;;2.10;0.93;;;6.50;99.90;;;;;;4884867;29;20036;-74
2023/12/20 01:53:00;;;;;;;1.92;0.70;;;6.50;99.90;;;;;;4888750;29;20347;-75
2023/12/20 01:55:38;;;;;;;1.90;0.90;;;6.50;99.90;;;;;;4889416;29;20092;-75
2023/12/20 01:58:05;;;;;;;2.05;1.02;;;6.60;99.90;;;;;;4889317;29;20029;-75
2023/12/20 02:00:31;;;;;;;1.92;0.70;;;6.50;99.90;;;;;;4889782;29;20041;-74
2023/12/20 02:03:00;;;;;;;1.88;0.80;;;6.50;99.90;;;;;;4890328;29;20077;-75
2023/12/20 02:05:30;;;;;;;1.70;0.90;;;6.40;99.90;;;;;;4888913;29;20051;-77
2023/12/20 02:07:56;;;;;;;1.60;0.80;;;6.50;99.90;;;;;;4893629;29;20031;-77
2023/12/20 02:10:21;;;;;;;2.92;0.70;;;6.50;99.90;;;;;;4890265;29;20025;-77
2023/12/20 02:12:47;;;;;;;3.03;1.15;;;6.40;99.90;;;;;;4888472;29;20057;-76
2023/12/20 02:15:13;;;;;;;2.67;1.02;;;6.40;99.90;;;;;;4889844;29;20288;-76
2023/12/20 02:17:39;;;;;;;1.90;1.05;;;6.40;99.90;;;;;;4873106;29;20139;-76
2023/12/20 02:20:06;;;;;;;2.45;0.88;;;6.40;99.90;;;;;;4890328;29;20045;-75
2023/12/20 02:22:32;;;;;;;1.77;0.85;;;6.40;99.90;;;;;;4888509;29;20041;-76
2023/12/20 02:25:01;;;;;;;2.42;0.80;;;6.50;99.90;;;;;;4873581;29;20040;-76
2023/12/20 02:27:27;;;;;;;1.90;1.00;;;6.50;99.90;;;;;;4905227;29;20080;-75
2023/12/20 02:29:53;;;;;;;3.75;0.90;;;6.50;99.90;;;;;;4891991;29;20207;-76
2023/12/20 02:32:20;;;;;;;4.15;0.90;;;6.50;99.90;;;;;;4908776;29;20055;-76
2023/12/20 02:34:49;;;;;;;2.00;0.90;;;6.40;99.90;;;;;;4908161;29;20072;-75
2023/12/20 02:37:15;;;;;;;2.35;0.75;;;6.50;99.90;;;;;;4908470;29;20041;-75
2023/12/20 02:39:41;;;;;;;2.55;1.00;;;6.50;99.90;;;;;;4907771;29;20129;-75
2023/12/20 02:42:07;;;;;;;1.70;0.80;;;6.50;99.90;;;;;;4908746;29;20040;-77
2023/12/20 02:44:33;;;;;;;2.30;1.10;;;6.50;99.90;;;;;;4874054;29;20028;-76
2023/12/20 02:46:58;;;;;;;2.80;1.10;;;6.50;99.90;;;;;;4908589;29;20231;-76
2023/12/20 02:49:24;;;;;;;3.97;1.60;;;6.40;99.90;;;;;;4891410;29;20028;-74
2023/12/20 02:51:49;;;;;;;4.07;1.70;;;6.40;99.90;;;;;;4907897;29;20048;-75
2023/12/20 02:54:15;;;;;;;4.45;1.90;;;6.50;99.90;;;;;;4891283;29;20028;-75
2023/12/20 02:56:41;;;;;;;3.45;1.60;;;6.40;99.90;;;;;;4890970;29;20048;-76
2023/12/20 02:59:08;;;;;;;2.60;1.50;;;6.40;99.90;;;;;;4907996;29;20047;-74
2023/12/20 03:01:44;;;;;;;3.70;1.58;;;6.40;99.90;;;;;;4902961;29;20040;-74
2023/12/20 03:04:09;;;;;;;3.28;1.67;;;6.40;99.90;;;;;;4891413;29;20039;-76
2023/12/20 03:06:35;;;;;;;4.05;1.52;;;6.40;99.90;;;;;;4907466;29;20032;-75
2023/12/20 03:09:01;;;;;;;3.47;1.65;;;6.40;99.90;;;;;;4908709;29;20074;-76
2023/12/20 03:11:30;;;;;;;2.40;1.30;;;6.40;99.90;;;;;;4908051;29;20112;-74
2023/12/20 03:13:58;;;;;;;2.85;1.48;;;6.40;99.90;;;;;;4904241;29;20025;-76
2023/12/20 03:16:24;;;;;;;4.80;1.17;;;6.40;99.90;;;;;;4907708;29;20108;-75
2023/12/20 03:18:50;;;;;;;3.10;1.45;;;6.40;99.90;;;;;;4907275;29;20044;-76
2023/12/20 03:21:15;;;;;;;2.80;1.50;;;6.40;99.90;;;;;;4891081;29;20096;-75
2023/12/20 03:23:41;;;;;;;2.80;1.13;;;6.40;99.90;;;;;;4906948;29;20039;-75
2023/12/20 03:26:08;;;;;;;1.85;0.93;;;6.40;99.90;;;;;;4891298;29;20056;-76
2023/12/20 03:28:34;;;;;;;3.20;1.38;;;6.40;99.90;;;;;;4906213;29;20246;-75
2023/12/20 03:31:00;;;;;;;4.03;1.63;;;6.40;99.90;;;;;;4895368;29;20049;-75
2023/12/20 03:33:25;;;;;;;2.10;1.10;;;6.40;99.90;;;;;;4888689;29;20104;-74
2023/12/20 03:35:51;;;;;;;4.07;1.75;;;6.40;99.90;;;;;;4888095;29;20065;-75
2023/12/20 03:38:17;;;;;;;2.80;0.85;;;6.40;99.90;;;;;;4887834;29;20048;-75
2023/12/20 03:40:43;;;;;;;2.92;0.82;;;6.40;99.90;;;;;;4888392;29;20040;-74
2023/12/20 03:43:08;;;;;;;2.40;0.40;;;6.50;99.90;;;;;;4888922;29;20049;-75
2023/12/20 03:45:34;;;;;;;0.82;0.22;;;6.50;99.90;;;;;;4856260;29;20100;-76
2023/12/20 03:48:00;;;;;;;0.80;0.20;;;6.60;99.90;;;;;;4893080;29;20056;-75
2023/12/20 03:50:26;;;;;;;1.02;0.30;;;6.60;99.90;;;;;;4907400;29;20037;-78
2023/12/20 03:52:52;;;;;;;0.60;0.20;;;6.50;99.90;;;;;;4906990;29;20024;-76
2023/12/20 03:55:17;;;;;;;0.85;0.20;;;6.60;99.90;;;;;;4890589;29;20051;-74
2023/12/20 03:57:43;;;;;;;0.63;0.20;;;6.60;99.90;;;;;;4890063;29;20036;-78
2023/12/20 04:00:10;;;;;;;0.77;0.13;;;6.60;99.90;;;;;;4890857;29;20239;-73
2023/12/20 04:02:42;;;;;;;0.17;0.00;;;6.50;99.90;;;;;;4906450;29;20044;-75
2023/12/20 04:05:09;;;;;;;0.40;0.10;;;6.50;99.90;;;;;;4906559;29;20337;-75
2023/12/20 04:07:35;;;;;;;0.85;0.20;;;6.40;99.90;;;;;;4894717;29;20085;-75
2023/12/20 04:10:02;;;;;;;0.75;0.20;;;6.50;99.90;;;;;;4894893;29;20100;-74
2023/12/20 04:12:28;;;;;;;1.83;0.17;;;6.50;99.90;;;;;;4894212;29;20101;-75
2023/12/20 04:14:54;;;;;;;0.45;0.10;;;6.40;99.90;;;;;;4894839;29;20025;-74
2023/12/20 04:17:20;;;;;;;0.80;0.10;;;6.40;99.90;;;;;;4894813;29;20089;-74
2023/12/20 04:19:46;;;;;;;0.40;0.10;;;6.40;99.90;;;;;;4894198;29;20032;-73
2023/12/20 04:22:14;;;;;;;0.20;0.05;;;6.30;99.90;;;;;;4894743;29;20045;-74
2023/12/20 04:24:42;;;;;;;0.10;0.00;;;6.40;99.90;;;;;;4897519;29;20338;-74
2023/12/20 04:27:08;;;;;;;0.98;0.13;;;6.30;99.90;;;;;;4893676;29;20370;-75
2023/12/20 04:29:34;;;;;;;1.60;0.20;;;6.30;99.90;;;;;;4893939;29;20228;-76
2023/12/20 04:32:00;;;;;;;0.30;0.00;;;6.30;99.90;;;;;;4893394;29;20248;-76
2023/12/20 04:34:26;;;;;;;0.50;0.10;;;6.30;99.90;;;;;;4894625;29;20037;-74
2023/12/20 04:36:52;;;;;;;0.22;0.10;;;6.30;99.90;;;;;;4894128;29;20207;-75
2023/12/20 04:39:17;;;;;;;0.57;0.10;;;6.30;99.90;;;;;;4896611;29;20081;-77
2023/12/20 04:41:43;;;;;;;0.22;0.10;;;6.30;99.90;;;;;;4912383;29;20044;-75
2023/12/20 04:44:08;;;;;;;0.22;0.10;;;6.30;99.90;;;;;;4913217;29;20099;-75
2023/12/20 04:46:34;;;;;;;1.00;0.20;;;6.30;99.90;;;;;;4912719;29;20091;-75
2023/12/20 04:49:00;;;;;;;0.35;0.10;;;6.30;99.90;;;;;;4896141;29;20099;-75
2023/12/20 04:51:25;;;;;;;0.22;0.10;;;6.30;99.90;;;;;;4894255;29;20021;-76
2023/12/20 04:53:51;;;;;;;0.40;0.10;;;6.30;99.90;;;;;;4893926;29;20323;-76
2023/12/20 04:56:17;;;;;;;0.30;0.10;;;6.30;99.90;;;;;;4897249;29;20033;-74
2023/12/20 04:58:42;;;;;;;0.47;0.10;;;6.20;99.90;;;;;;4912293;29;20069;-75
2023/12/20 05:01:09;;;;;;;1.13;0.10;;;6.30;99.90;;;;;;4912776;29;20104;-75
2023/12/20 05:03:35;;;;;;;0.93;0.20;;;6.30;99.90;;;;;;4912280;29;20032;-76
2023/12/20 05:06:00;;;;;;;0.10;0.10;;;6.30;99.90;;;;;;4896365;29;20307;-76
2023/12/20 05:08:26;;;;;;;1.35;0.13;;;6.40;99.90;;;;;;4912837;29;20100;-75
2023/12/20 05:10:54;;;;;;;0.45;0.15;;;6.40;99.90;;;;;;4912494;29;20295;-75
2023/12/20 05:13:20;;;;;;;0.13;0.10;;;6.30;99.90;;;;;;4911023;29;20025;-75
2023/12/20 05:15:46;;;;;;;0.28;0.10;;;6.30;99.90;;;;;;4895406;29;20044;-75
2023/12/20 05:18:12;;;;;;;0.45;0.10;;;6.20;99.90;;;;;;4909674;29;20060;-76
2023/12/20 05:20:38;;;;;;;0.77;0.10;;;6.20;99.90;;;;;;4909263;29;20032;-75
2023/12/20 05:23:04;;;;;;;0.63;0.20;;;6.20;99.90;;;;;;4910085;29;20041;-76
2023/12/20 05:25:30;;;;;;;0.63;0.10;;;6.20;99.90;;;;;;4909184;29;20115;-76
2023/12/20 05:27:56;;;;;;;0.50;0.17;;;6.20;99.90;;;;;;4909669;29;20044;-75
2023/12/20 05:30:21;;;;;;;0.60;0.20;;;6.20;99.90;;;;;;4909922;29;20037;-77
2023/12/20 05:32:47;;;;;;;0.55;0.30;;;6.20;99.90;;;;;;4897608;29;20315;-76
2023/12/20 05:35:13;;;;;;;0.30;0.10;;;6.20;99.90;;;;;;4874532;29;20045;-75
2023/12/20 05:37:39;;;;;;;0.65;0.20;;;6.20;99.90;;;;;;4890286;29;20025;-75
2023/12/20 05:40:05;;;;;;;0.55;0.20;;;6.20;99.90;;;;;;4890037;29;20048;-75
2023/12/20 05:42:31;;;;;;;0.82;0.17;;;6.20;99.90;;;;;;4890421;29;20039;-76
2023/12/20 05:44:56;;;;;;;0.73;0.20;;;6.20;99.90;;;;;;4890507;29;20021;-78
2023/12/20 05:47:22;;;;;;;0.45;0.10;;;6.20;99.90;;;;;;4890881;29;20345;-75
2023/12/20 05:49:51;;;;;;;0.73;0.13;;;6.20;99.90;;;;;;4891546;29;20326;-78
2023/12/20 05:52:17;;;;;;;0.55;0.20;;;6.20;99.90;;;;;;4892761;29;20144;-76
2023/12/20 05:54:46;;;;;;;1.10;0.25;;;6.20;99.90;;;;;;4892555;29;20035;-77
2023/12/20 05:57:12;;;;;;;0.55;0.10;;;6.20;99.90;;;;;;4892705;29;20017;-75
2023/12/20 05:59:38;;;;;;;0.80;0.22;;;6.20;99.90;;;;;;4892020;29;20032;-74
2023/12/20 06:02:04;;;;;;;1.23;0.20;;;6.10;99.90;;;;;;4899554;29;20323;-76
2023/12/20 06:04:30;;;;;;;0.50;0.20;;;6.10;99.90;;;;;;4857634;29;20021;-75
2023/12/20 06:07:00;;;;;;;2.42;0.20;;;6.10;99.90;;;;;;4890392;29;20029;-76
2023/12/20 06:09:29;;;;;;;1.42;0.10;;;6.10;99.90;;;;;;4874178;29;20331;-77
2023/12/20 06:11:55;;;;;;;1.33;0.30;;;6.10;99.90;;;;;;4889485;29;20085;-74
2023/12/20 06:14:33;;;;;;;0.88;0.20;;;6.10;99.90;;;;;;4890351;29;20065;-74
2023/12/20 06:17:02;;;;;;;0.95;0.22;;;6.10;99.90;;;;;;4873854;29;20060;-76
2023/12/20 06:19:28;;;;;;;1.08;0.40;;;6.10;99.90;;;;;;4902597;29;20374;-75
2023/12/20 06:21:54;;;;;;;4.40;1.65;;;6.10;99.90;;;;;;4908515;29;20044;-79
2023/12/20 06:24:21;;;;;;;1.25;0.30;;;6.10;99.90;;;;;;4908789;29;20132;-74
2023/12/20 06:26:47;;;;;;;0.70;0.30;;;6.10;99.90;;;;;;4908135;29;20204;-74
2023/12/20 06:29:12;;;;;;;2.15;0.60;;;6.10;99.90;;;;;;4907400;29;20080;-76
2023/12/20 06:31:38;;;;;;;2.28;0.50;;;6.10;99.90;;;;;;4908648;29;20052;-73
2023/12/20 06:34:03;;;;;;;1.25;0.35;;;6.10;99.90;;;;;;4876530;29;20028;-73
2023/12/20 06:36:29;;;;;;;1.80;0.40;;;6.10;99.90;;;;;;4901215;29;20338;-74
2023/12/20 06:38:58;;;;;;;1.27;0.20;;;6.10;99.90;;;;;;4889589;29;20021;-72
2023/12/20 06:41:24;;;;;;;1.00;0.30;;;6.10;99.90;;;;;;4888429;29;20045;-74
2023/12/20 06:43:50;;;;;;;0.90;0.40;;;6.10;99.90;;;;;;4888927;29;20079;-72
2023/12/20 06:46:16;;;;;;;2.13;0.40;;;6.10;99.90;;;;;;4889857;29;20029;-73
2023/12/20 06:48:42;;;;;;;2.72;0.60;;;6.10;99.90;;;;;;4872651;29;20144;-74
2023/12/20 06:51:12;;;;;;;1.70;0.40;;;6.10;99.90;;;;;;4906053;29;20028;-75
2023/12/20 06:53:38;;;;;;;2.42;0.50;;;6.20;99.90;;;;;;4903407;29;20097;-75
2023/12/20 06:56:07;;;;;;;2.95;0.50;;;6.20;99.90;;;;;;4906638;29;20037;-75
2023/12/20 06:58:33;;;;;;;1.27;0.47;;;6.20;99.90;;;;;;4907075;29;20056;-74
2023/12/20 07:01:01;;;;;;;2.03;0.57;;;6.20;99.90;;;;;;4891341;29;20032;-75
2023/12/20 07:03:30;;;;;;;;;;;6.20;99.90;;;;;;4898673;29;20350;-76
2023/12/20 07:05:55;;;;;;;1.40;0.45;;;6.20;99.90;;;;;;4889021;29;19986;-75
2023/12/20 07:08:21;;;;;;;1.38;0.50;;;6.30;99.90;;;;;;4856960;29;20020;-76
2023/12/20 07:10:47;;;;;;;1.33;0.45;;;6.40;99.90;;;;;;4893530;29;20049;-74
2023/12/20 07:13:13;;;;;;;1.15;0.50;;;6.40;99.90;;;;;;4875794;29;20039;-76
2023/12/20 07:15:39;;;;;;;1.80;0.40;;;6.40;99.90;;;;;;4907330;29;20041;-75
2023/12/20 07:18:06;;;;;;;2.47;0.40;;;6.40;99.90;;;;;;4907661;29;20024;-74
2023/12/20 07:20:32;;;;;;;1.65;0.70;;;6.40;99.90;;;;;;4907004;29;20053;-75
2023/12/20 07:22:57;;;;;;;2.05;0.90;;;6.50;99.90;;;;;;4907556;29;20084;-75
2023/12/20 07:25:23;;;;;;;1.90;0.90;;;6.60;99.90;;;;;;4907680;29;20088;-74
2023/12/20 07:27:49;;;;;;;2.42;0.90;;;6.60;99.90;;;;;;4902775;29;20090;-75
2023/12/20 07:30:14;;;;;;;2.47;1.23;;;6.60;99.90;;;;;;4890369;29;20207;-75
2023/12/20 07:32:40;;;;;;;3.78;1.02;;;6.60;99.90;;;;;;4887764;29;20024;-75
2023/12/20 07:35:06;;;;;;;3.00;1.10;;;6.70;99.90;;;;;;4906212;29;20196;-75
2023/12/20 07:37:32;;;;;;;3.60;0.90;;;6.70;99.90;;;;;;4890280;29;20064;-74
2023/12/20 07:39:57;;;;;;;1.65;0.85;;;6.70;99.90;;;;;;4906918;29;20033;-75
2023/12/20 07:42:23;;;;;;;1.83;0.90;;;6.70;99.90;;;;;;4906101;29;20048;-75
2023/12/20 07:44:49;;;;;;;2.00;0.90;;;6.70;99.90;;;;;;4896787;29;20032;-76
2023/12/20 07:47:18;;;;;;;2.17;0.93;;;6.70;99.90;;;;;;4888508;29;20037;-76
2023/12/20 07:49:46;;;;;;;3.17;1.00;;;6.60;99.90;;;;;;4862583;29;20028;-76
2023/12/20 07:52:11;;;;;;;2.83;1.20;;;6.60;99.90;;;;;;4906022;29;20035;-76
2023/12/20 07:54:37;;;;;;;3.35;1.08;;;6.70;99.90;;;;;;4906324;29;20104;-74
2023/12/20 07:57:03;;;;;;;2.70;1.25;;;6.60;99.90;;;;;;4907268;29;20142;-75
2023/12/20 07:59:28;;;;;;;3.38;1.48;;;6.60;99.90;;;;;;4906473;29;20346;-73
2023/12/20 08:01:54;;;;;;;2.63;1.50;;;6.60;99.90;;;;;;4896030;29;20331;-74
2023/12/20 08:04:20;;;;;;;2.78;1.60;;;6.40;99.90;;;;;;4888544;29;20100;-73
2023/12/20 08:06:45;;;;;;;3.25;1.48;;;6.40;99.90;;;;;;4887897;29;20021;-71
2023/12/20 08:09:11;;;;;;;2.65;1.50;;;6.30;99.90;;;;;;4888023;29;20033;-73
2023/12/20 08:11:39;;;;;;;4.10;1.30;;;6.30;99.90;;;;;;4887751;29;20033;-73
2023/12/20 08:14:05;;;;;;;;;;;6.30;99.90;;;;;;4872134;29;20032;-73
2023/12/20 08:16:31;;;;;;;3.13;1.55;;;6.20;99.90;;;;;;4887774;29;20134;-72
2023/12/20 08:18:56;;;;;;;3.72;1.58;;;6.20;99.90;;;;;;4891346;29;20032;-73
2023/12/20 08:21:22;;;;;;;3.92;1.50;;;6.10;99.90;;;;;;4887332;29;20203;-76
2023/12/20 08:23:48;;;;;;;7.03;1.50;;;6.10;99.90;;;;;;4887110;29;20049;-75
2023/12/20 08:26:14;;;;;;;2.38;1.30;;;6.10;99.90;;;;;;4888208;29;20342;-71
2023/12/20 08:28:39;;;;;;;3.38;1.55;;;6.20;99.90;;;;;;4887678;29;20219;-74
2023/12/20 08:31:05;;;;;;;3.60;1.60;;;6.30;99.90;;;;;;4887158;29;20032;-74
2023/12/20 08:33:39;;;;;;;3.88;1.80;;;6.30;99.90;;;;;;4888248;29;20438;-73
2023/12/20 08:36:05;;;;;;;4.95;1.67;;;6.50;99.90;;;;;;4891377;29;20029;-75
2023/12/20 08:38:31;;;;;;;3.47;1.77;;;6.40;99.90;;;;;;4895914;29;20096;-73
2023/12/20 08:40:57;;;;;;;4.55;1.52;;;6.40;99.90;;;;;;4888063;29;20074;-75
2023/12/20 08:43:22;;;;;;;3.25;1.33;;;6.30;99.90;;;;;;4889620;29;20100;-73
2023/12/20 08:45:51;;;;;;;4.30;1.50;;;6.30;99.90;;;;;;4906354;29;20268;-73
2023/12/20 08:48:16;;;;;;;2.83;1.67;;;6.30;99.90;;;;;;4906676;29;20080;-74
2023/12/20 08:50:42;;;;;;;3.28;1.48;;;6.30;99.90;;;;;;4905839;29;20256;-73
2023/12/20 08:53:08;;;;;;;4.25;1.63;;;6.10;99.90;;;;;;4908673;29;20035;-73
2023/12/20 08:55:36;;;;;;;3.85;1.77;;;6.20;99.90;;;;;;4909405;29;20043;-74
2023/12/20 08:58:02;;;;;;;4.10;1.67;;;6.10;99.90;;;;;;4910388;29;20035;-74
2023/12/20 09:00:28;;;;;;;3.25;1.60;;;6.10;99.90;;;;;;4909360;29;20029;-74
2023/12/20 09:02:54;;;;;;;2.97;1.60;;;6.00;99.90;;;;;;4910040;29;20111;-73
2023/12/20 09:05:20;;;;;;;3.33;1.50;;;6.10;99.90;;;;;;4905237;29;20025;-74
2023/12/20 09:07:46;;;;;;;2.95;1.65;;;6.00;99.90;;;;;;4909193;29;20100;-72
2023/12/20 09:10:11;;;;;;;3.17;1.80;;;6.10;99.90;;;;;;4892753;29;20055;-73
2023/12/20 09:12:40;;;;;;;3.47;1.50;;;6.10;99.90;;;;;;4906000;29;20091;-74
2023/12/20 09:15:06;;;;;;;3.13;1.63;;;6.10;99.90;;;;;;4909890;29;20076;-73
2023/12/20 09:17:32;;;;;;;3.58;1.70;;;6.10;99.90;;;;;;4901482;29;20048;-74
2023/12/20 09:19:59;;;;;;;3.25;1.83;;;6.10;99.90;;;;;;4901076;29;20029;-72
2023/12/20 09:22:25;;;;;;;3.15;1.65;;;6.20;99.90;;;;;;4909541;29;20037;-71
2023/12/20 09:24:51;;;;;;;4.55;1.73;;;6.20;99.90;;;;;;4902137;29;20341;-72
2023/12/20 09:27:17;;;;;;;3.67;2.15;;;6.20;99.90;;;;;;4898441;29;20028;-74
2023/12/20 09:29:42;;;;;;;5.93;1.70;;;6.20;99.90;;;;;;4908810;29;20096;-73
2023/12/20 09:32:08;;;;;;;6.80;2.25;;;6.30;99.90;;;;;;4897811;29;20056;-73
2023/12/20 09:34:34;;;;;;;3.47;1.60;;;6.30;99.90;;;;;;4890224;29;20295;-74
2023/12/20 09:37:03;;;;;;;4.60;2.08;;;6.30;99.90;;;;;;4890573;29;20311;-74
2023/12/20 09:39:29;;;;;;;4.55;1.40;;;6.40;99.90;;;;;;4905831;29;20040;-76
2023/12/20 09:42:02;;;;;;;4.28;1.48;;;6.40;99.90;;;;;;4908846;29;20032;-74
2023/12/20 09:44:28;;;;;;;3.45;1.17;;;6.50;99.90;;;;;;4908783;29;20040;-75
2023/12/20 09:47:05;;;;;;;3.20;1.10;;;6.60;99.90;;;;;;4908993;29;20104;-79
2023/12/20 09:49:32;;;;;;;3.25;1.13;;;6.60;99.90;;;;;;4908434;29;20058;-76
2023/12/20 09:51:59;;;;;;;3.13;0.82;;;6.70;99.90;;;;;;4909062;29;20380;-74
2023/12/20 09:54:26;;;;;;;4.80;1.20;;;6.70;99.90;;;;;;4892264;29;20072;-74
2023/12/20 09:56:52;;;;;;;5.57;1.02;;;6.70;99.90;;;;;;4872054;29;20048;-75
2023/12/20 09:59:20;;;;;;;;;;;6.70;99.90;;;;;;4906082;29;20033;-74
2023/12/20 10:01:46;;;;;;;5.18;1.20;;;6.80;99.90;;;;;;4905161;29;20271;-74
2023/12/20 10:04:13;;;;;;;4.43;1.08;;;6.90;99.90;;;;;;4907255;29;20033;-74
2023/12/20 10:06:42;;;;;;;6.07;1.30;;;7.00;99.90;;;;;;4908655;29;20081;-75
2023/12/20 10:09:09;;;;;;;4.57;0.60;;;7.00;99.90;;;;;;4908952;29;20287;-75
2023/12/20 10:11:39;;;;;;;4.40;1.00;;;7.00;99.90;;;;;;4908222;29;20036;-74
2023/12/20 10:14:07;;;;;;;4.32;0.77;;;7.10;99.90;;;;;;4893503;29;20273;-74
2023/12/20 10:16:34;;;;;;;3.75;0.70;;;7.20;99.90;;;;;;4909012;29;20068;-71
2023/12/20 10:19:04;;;;;;;5.78;1.40;;;7.40;99.90;;;;;;4914536;29;20096;-73
2023/12/20 10:21:29;;;;;;;5.97;1.20;;;7.50;99.90;;;;;;4916402;29;20032;-75
2023/12/20 10:23:56;;;;;;;3.88;1.15;;;7.70;99.70;;;;;;4915819;29;20045;-76
2023/12/20 10:26:23;;;;;;;2.92;0.50;;;7.70;99.30;;;;;;4907892;29;20035;-74
2023/12/20 10:29:03;;;;;;;3.15;0.93;;;7.60;98.50;;;;;;4908273;29;20044;-75
2023/12/20 10:31:36;;;;;;;3.80;0.90;;;7.60;98.20;;;;;;4907874;29;20036;-76
2023/12/20 10:34:04;;;;;;;5.72;1.50;;;7.60;98.40;;;;;;4908502;29;20025;-75
2023/12/20 10:36:32;;;;;;;4.13;0.88;;;7.60;98.70;;;;;;4891508;29;20059;-77
2023/12/20 10:39:02;;;;;;;6.63;1.00;;;7.60;98.70;;;;;;4891447;29;20135;-74
2023/12/20 10:41:32;;;;;;;5.75;1.23;;;7.60;98.90;;;;;;4907728;29;20020;-73
2023/12/20 10:44:05;;;;;;;4.75;0.95;;;7.50;98.50;;;;;;4907822;29;20064;-75
2023/12/20 10:46:34;;;;;;;6.68;1.23;;;7.60;98.50;;;;;;4875515;29;20062;-75
2023/12/20 10:49:02;;;;;;;;;;;7.70;98.80;;;;;;4908686;29;20145;-72
2023/12/20 10:51:30;;;;;;;5.38;1.17;;;7.60;98.30;;;;;;4893070;29;19919;-74
2023/12/20 10:54:16;;;;;;;5.45;1.08;;;7.50;99.00;;;;;;4907759;29;20047;-72
2023/12/20 10:56:42;;;;;;;3.58;0.90;;;7.50;99.30;;;;;;4907080;29;20448;-73
2023/12/20 10:59:11;;;;;;;3.13;0.90;;;7.40;98.80;;;;;;4907589;29;20028;-74
2023/12/20 11:01:42;;;;;;;8.38;1.83;;;7.30;99.10;;;;;;4890738;29;20035;-72
2023/12/20 11:04:23;;;;;;;4.82;1.42;;;7.10;99.80;;;;;;4907391;29;20175;-72
2023/12/20 11:06:51;;;;;;;8.18;1.30;;;7.10;99.80;;;;;;4890398;29;20396;-75
2023/12/20 11:09:22;;;;;;;;;;;7.00;99.90;;;;;;4902176;29;20036;-74
2023/12/20 11:12:18;;;;;;;5.85;1.23;;;7.10;99.60;;;;;;4904179;29;20162;-72
2023/12/20 11:14:47;;;;;;;5.93;1.20;;;7.20;99.10;;;;;;4897160;29;20358;-74
2023/12/20 11:17:16;;;;;;;5.63;1.00;;;7.40;98.10;;;;;;4906742;29;20063;-74
2023/12/20 11:19:57;;;;;;;3.50;1.00;;;7.60;98.00;;;;;;4906284;29;20098;-76
2023/12/20 11:22:27;;;;;;;4.97;0.90;;;7.60;97.70;;;;;;4887763;29;20136;-74
2023/12/20 11:24:55;;;;;;;5.15;1.17;;;7.70;97.60;;;;;;4888814;29;20081;-74
2023/12/20 11:27:21;;;;;;;4.85;0.80;;;7.50;97.70;;;;;;4906891;29;20104;-73
2023/12/20 11:29:55;;;;;;;4.28;1.00;;;7.50;98.10;;;;;;4905927;29;20715;-76
2023/12/20 11:32:27;;;;;;;4.53;1.10;;;7.50;98.00;;;;;;4906724;29;20044;-75
2023/12/20 11:34:55;;;;;;;7.68;1.10;;;7.40;98.00;;;;;;4906575;29;20052;-74
2023/12/20 11:37:22;;;;;;;6.03;1.37;;;7.30;97.60;;;;;;4906290;29;20040;-74
2023/12/20 11:40:02;;;;;;;5.53;1.25;;;7.30;98.00;;;;;;4906217;29;20889;-75
2023/12/20 11:42:30;;;;;;;4.03;0.90;;;7.30;98.40;;;;;;4903669;29;20327;-78
2023/12/20 11:45:03;;;;;;;7.38;2.17;;;7.40;98.20;;;;;;4899010;29;20040;-74
2023/12/20 11:47:31;;;;;;;4.93;1.10;;;7.40;97.60;;;;;;4905431;29;20044;-73
2023/12/20 11:49:57;;;;;;;5.28;1.00;;;7.40;97.20;;;;;;4883075;29;20259;-72
2023/12/20 11:52:22;;;;;;;3.47;1.25;;;7.30;96.70;;;;;;4903171;29;20059;-75
2023/12/20 11:54:48;;;;;;;3.22;0.93;;;7.20;96.70;;;;;;4905804;29;20040;-72
2023/12/20 11:57:14;;;;;;;3.33;0.80;;;7.10;97.10;;;;;;4889240;29;20033;-72
2023/12/20 11:59:39;;;;;;;7.68;1.55;;;7.00;97.10;;;;;;4905472;29;20028;-75
2023/12/20 12:02:05;;;;;;;5.90;1.30;;;7.10;97.10;;;;;;4901113;29;20044;-74
2023/12/20 12:04:31;;;;;;;5.30;0.98;;;7.10;97.00;;;;;;4905672;29;20055;-73
2023/12/20 12:06:57;;;;;;;5.65;1.05;;;7.10;97.00;;;;;;4906047;29;20327;-74
2023/12/20 12:09:23;;;;;;;9.25;1.10;;;7.20;96.60;;;;;;4889415;29;20153;-73
2023/12/20 12:11:49;;;;;;;5.75;1.08;;;7.20;96.50;;;;;;4904926;29;20035;-73
2023/12/20 12:14:19;;;;;;;8.13;1.20;;;7.20;96.50;;;;;;4889410;29;20048;-74
2023/12/20 12:16:45;;;;;;;6.70;1.17;;;7.20;96.20;;;;;;4887682;29;20053;-76
2023/12/20 12:19:24;;;;;;;4.75;1.40;;;7.20;96.50;;;;;;4885489;29;20040;-73
2023/12/20 12:21:51;;;;;;;3.97;0.98;;;7.20;96.10;;;;;;4905324;29;20051;-75
2023/12/20 12:24:21;;;;;;;7.80;1.80;;;7.30;96.20;;;;;;4906344;29;20043;-76
2023/12/20 12:26:51;;;;;;;7.03;1.48;;;7.50;96.00;;;;;;4907076;29;20073;-76
2023/12/20 12:29:17;;;;;;;4.25;1.42;;;7.70;95.70;;;;;;4909726;29;20040;-78
2023/12/20 12:31:42;;;;;;;4.18;1.20;;;7.60;95.40;;;;;;4907997;29;20036;-76
2023/12/20 12:34:09;;;;;;;5.50;1.10;;;7.80;95.40;;;;;;4909321;29;20359;-75
2023/12/20 12:36:34;;;;;;;4.43;1.20;;;7.80;95.50;;;;;;4904347;29;20248;-75
2023/12/20 12:39:04;;;;;;;6.53;1.27;;;8.00;95.50;;;;;;4883851;29;20109;-76
2023/12/20 12:41:30;;;;;;;5.53;1.20;;;7.90;95.20;;;;;;4887753;29;20033;-75
2023/12/20 12:43:56;;;;;;;5.88;0.93;;;7.80;95.00;;;;;;4909433;29;20040;-75
2023/12/20 12:46:21;;;;;;;4.93;1.00;;;7.50;95.40;;;;;;4902204;29;20101;-75
2023/12/20 12:48:47;;;;;;;5.10;1.00;;;7.30;95.50;;;;;;4888933;29;20805;-76
2023/12/20 12:51:13;;;;;;;3.22;0.90;;;7.40;95.80;;;;;;4890805;29;20108;-74
2023/12/20 12:53:42;;;;;;;4.60;1.50;;;7.50;95.80;;;;;;4892228;29;20076;-76
2023/12/20 12:56:12;;;;;;;6.35;1.30;;;7.60;96.00;;;;;;4909060;29;20255;-75